createdAt,value
2022-11-21T00:02:25.907Z,14.00
2022-11-21T00:04:54.300Z,8.70
2022-11-21T00:07:22.652Z,9.73
2022-11-21T00:09:52.480Z,9.38
2022-11-21T00:12:20.812Z,9.73
2022-11-21T00:14:49.129Z,10.65
2022-11-21T00:17:17.523Z,9.43
2022-11-21T00:19:45.968Z,7.18
2022-11-21T00:22:14.331Z,9.48
2022-11-21T00:24:42.714Z,8.27
2022-11-21T00:27:12.423Z,8.45
2022-11-21T00:29:40.785Z,7.85
2022-11-21T00:32:09.145Z,7.30
2022-11-21T00:34:37.479Z,7.20
2022-11-21T00:37:05.836Z,5.28
2022-11-21T00:39:34.181Z,8.60
2022-11-21T00:42:02.556Z,7.82
2022-11-21T00:44:32.476Z,8.10
2022-11-21T00:47:00.826Z,9.95
2022-11-21T00:49:29.163Z,6.82
2022-11-21T00:51:57.584Z,5.90
2022-11-21T00:54:26.340Z,4.97
2022-11-21T00:56:54.967Z,5.15
2022-11-21T00:59:23.339Z,5.88
2022-11-21T01:01:53.200Z,5.80
2022-11-21T01:04:21.664Z,5.45
2022-11-21T01:06:50.038Z,6.00
2022-11-21T01:09:18.438Z,5.10
2022-11-21T01:11:46.781Z,5.55
2022-11-21T01:14:15.106Z,6.15
2022-11-21T01:16:43.888Z,7.45
2022-11-21T01:19:13.688Z,5.38
2022-11-21T01:21:42.065Z,5.68
2022-11-21T01:24:13.032Z,8.37
2022-11-21T01:26:41.444Z,5.85
2022-11-21T01:29:11.274Z,6.03
2022-11-21T01:31:39.710Z,9.77
2022-11-21T01:34:08.115Z,6.68
2022-11-21T01:36:37.993Z,5.80
2022-11-21T01:39:09.046Z,6.32
2022-11-21T01:41:39.864Z,6.30
2022-11-21T01:44:19.104Z,4.25
2022-11-21T01:46:48.011Z,7.05
2022-11-21T01:49:20.311Z,9.73
2022-11-21T01:51:55.175Z,4.20
2022-11-21T01:54:30.529Z,4.32
2022-11-21T01:57:09.165Z,4.05
2022-11-21T01:59:43.817Z,6.82
2022-11-21T02:02:14.836Z,2.85
2022-11-21T02:04:45.571Z,3.80
2022-11-21T02:07:19.156Z,5.45
2022-11-21T02:09:52.347Z,4.85
2022-11-21T02:12:27.794Z,3.38
2022-11-21T02:14:57.692Z,3.58
2022-11-21T02:17:27.986Z,3.95
2022-11-21T02:19:59.536Z,2.58
2022-11-21T02:22:43.939Z,3.03
2022-11-21T02:25:18.248Z,4.80
2022-11-21T02:27:47.401Z,17.33
2022-11-21T02:30:16.303Z,3.05
2022-11-21T02:32:47.878Z,3.03
2022-11-21T02:35:19.147Z,2.63
2022-11-21T02:37:52.521Z,2.47
2022-11-21T02:40:26.766Z,3.00
2022-11-21T02:43:02.787Z,2.85
2022-11-21T02:45:37.745Z,3.63
2022-11-21T02:48:06.659Z,2.83
2022-11-21T02:50:37.366Z,4.35
2022-11-21T02:53:09.318Z,4.15
2022-11-21T02:55:39.339Z,3.20
2022-11-21T02:58:07.996Z,5.65
2022-11-21T03:00:38.985Z,2.78
2022-11-21T03:03:07.464Z,3.30
2022-11-21T03:05:36.283Z,3.72
2022-11-21T03:08:05.720Z,10.68
2022-11-21T03:10:34.438Z,4.03
2022-11-21T03:13:04.300Z,3.88
2022-11-21T03:15:35.289Z,5.22
2022-11-21T03:18:05.369Z,4.15
2022-11-21T03:20:35.631Z,3.42
2022-11-21T03:23:04.488Z,3.88
2022-11-21T03:25:33.061Z,3.45
2022-11-21T03:28:01.388Z,3.78
2022-11-21T03:30:31.294Z,5.57
2022-11-21T03:33:00.073Z,3.33
2022-11-21T03:35:28.612Z,7.13
2022-11-21T03:37:56.926Z,5.28
2022-11-21T03:40:25.289Z,3.63
2022-11-21T03:42:53.651Z,4.55
2022-11-21T03:45:22.118Z,5.90
2022-11-21T03:47:51.808Z,3.63
2022-11-21T03:50:21.627Z,3.05
2022-11-21T03:52:50.052Z,2.83
2022-11-21T03:55:18.359Z,2.60
2022-11-21T03:57:46.685Z,4.05
2022-11-21T04:00:17.234Z,2.42
2022-11-21T04:02:45.645Z,1.65
2022-11-21T04:05:15.485Z,1.80
2022-11-21T04:07:43.924Z,1.75
2022-11-21T04:10:12.511Z,1.98
2022-11-21T04:12:40.840Z,1.15
2022-11-21T04:15:13.704Z,1.15
2022-11-21T04:17:42.697Z,1.80
2022-11-21T04:20:14.142Z,1.58
2022-11-21T04:22:43.529Z,2.00
2022-11-21T04:25:13.782Z,1.88
2022-11-21T04:27:42.136Z,0.93
2022-11-21T04:30:12.062Z,1.98
2022-11-21T04:32:40.395Z,0.60
2022-11-21T04:35:09.828Z,0.77
2022-11-21T04:37:40.898Z,1.20
2022-11-21T04:40:10.739Z,3.20
2022-11-21T04:42:41.989Z,0.95
2022-11-21T04:45:11.553Z,0.70
2022-11-21T04:47:40.294Z,1.25
2022-11-21T04:50:11.135Z,1.10
2022-11-21T04:52:41.071Z,1.45
2022-11-21T04:55:10.855Z,1.25
2022-11-21T04:57:39.191Z,1.67
2022-11-21T05:00:09.963Z,1.10
2022-11-21T05:02:38.329Z,1.13
2022-11-21T05:05:07.921Z,1.40
2022-11-21T05:07:36.737Z,1.27
2022-11-21T05:10:08.134Z,0.90
2022-11-21T05:12:54.112Z,1.63
2022-11-21T05:15:24.932Z,1.02
2022-11-21T05:17:53.767Z,1.05
2022-11-21T05:20:22.142Z,1.42
2022-11-21T05:22:53.399Z,1.70
2022-11-21T05:25:23.177Z,1.55
2022-11-21T05:27:51.521Z,3.58
2022-11-21T05:30:20.079Z,2.22
2022-11-21T05:32:48.410Z,3.38
2022-11-21T05:35:17.097Z,3.58
2022-11-21T05:37:45.589Z,2.45
2022-11-21T05:40:14.622Z,2.45
2022-11-21T05:43:02.305Z,2.10
2022-11-21T05:45:30.812Z,1.20
2022-11-21T05:47:59.274Z,1.40
2022-11-21T05:50:27.740Z,1.40
2022-11-21T05:52:56.073Z,1.45
2022-11-21T05:55:24.408Z,3.22
2022-11-21T05:57:54.149Z,1.58
2022-11-21T06:00:23.110Z,1.23
2022-11-21T06:03:08.903Z,1.17
2022-11-21T06:05:37.338Z,1.88
2022-11-21T06:08:06.655Z,2.20
2022-11-21T06:10:35.031Z,1.23
2022-11-21T06:13:22.063Z,1.20
2022-11-21T06:16:01.630Z,2.40
2022-11-21T06:18:32.727Z,2.15
2022-11-21T06:21:06.268Z,2.42
2022-11-21T06:23:35.732Z,2.63
2022-11-21T06:26:08.142Z,1.48
2022-11-21T06:28:41.503Z,1.23
2022-11-21T06:31:12.142Z,1.17
2022-11-21T06:33:41.249Z,1.63
2022-11-21T06:36:12.316Z,0.80
2022-11-21T06:38:40.936Z,1.20
2022-11-21T06:41:12.598Z,1.80
2022-11-21T06:43:43.226Z,1.00
2022-11-21T06:46:12.259Z,0.90
2022-11-21T06:48:41.278Z,1.20
2022-11-21T06:51:14.385Z,1.92
2022-11-21T06:53:42.710Z,2.25
2022-11-21T06:56:11.272Z,1.77
2022-11-21T06:58:41.014Z,1.08
2022-11-21T07:01:11.603Z,1.13
2022-11-21T07:03:40.248Z,1.00
2022-11-21T07:06:09.188Z,0.95
2022-11-21T07:08:40.741Z,1.83
2022-11-21T07:11:27.239Z,0.90
2022-11-21T07:13:56.571Z,0.65
2022-11-21T07:16:26.475Z,2.50
2022-11-21T07:18:55.064Z,1.23
2022-11-21T07:21:23.448Z,1.08
2022-11-21T07:23:51.805Z,1.67
2022-11-21T07:26:20.205Z,3.05
2022-11-21T07:28:48.643Z,1.15
2022-11-21T07:31:18.373Z,1.30
2022-11-21T07:33:47.589Z,1.70
2022-11-21T07:36:16.059Z,1.17
2022-11-21T07:38:44.373Z,1.35
2022-11-21T07:41:12.761Z,1.27
2022-11-21T07:43:41.120Z,2.45
2022-11-21T07:46:09.520Z,3.55
2022-11-21T07:48:39.203Z,1.45
2022-11-21T07:51:07.768Z,1.40
2022-11-21T07:53:36.112Z,2.47
2022-11-21T07:56:04.982Z,2.55
2022-11-21T07:58:33.358Z,2.97
2022-11-21T08:01:06.388Z,1.08
2022-11-21T08:03:35.291Z,1.30
2022-11-21T08:06:06.291Z,1.33
2022-11-21T08:08:34.763Z,1.42
2022-11-21T08:11:06.573Z,2.28
2022-11-21T08:13:35.009Z,1.52
2022-11-21T08:16:05.181Z,3.60
2022-11-21T08:18:33.792Z,1.40
2022-11-21T08:21:05.001Z,1.50
2022-11-21T08:23:33.864Z,3.35
2022-11-21T08:26:02.376Z,3.08
2022-11-21T08:28:30.748Z,1.63
2022-11-21T08:30:59.165Z,1.73
2022-11-21T08:33:27.568Z,1.75
2022-11-21T08:35:55.930Z,1.58
2022-11-21T08:38:25.896Z,1.25
2022-11-21T08:41:28.148Z,3.13
2022-11-21T08:43:56.566Z,1.25
2022-11-21T08:46:27.420Z,15.68
2022-11-21T08:48:56.645Z,1.38
2022-11-21T08:51:25.107Z,2.90
2022-11-21T08:53:54.852Z,1.80
2022-11-21T08:56:23.409Z,0.85
2022-11-21T08:58:51.908Z,2.97
2022-11-21T09:01:20.705Z,0.80
2022-11-21T09:03:49.140Z,1.73
2022-11-21T09:06:17.539Z,1.23
2022-11-21T09:08:47.037Z,1.02
2022-11-21T09:11:16.890Z,1.15
2022-11-21T09:14:05.425Z,2.88
2022-11-21T09:16:51.334Z,2.22
2022-11-21T09:19:19.798Z,1.42
2022-11-21T09:21:49.996Z,2.03
2022-11-21T09:24:19.112Z,0.93
2022-11-21T09:26:48.993Z,1.98
2022-11-21T09:29:17.560Z,2.95
2022-11-21T09:31:46.590Z,1.50
2022-11-21T09:34:15.020Z,2.15
2022-11-21T09:36:43.480Z,2.83
2022-11-21T09:39:11.885Z,1.85
2022-11-21T09:41:55.527Z,1.23
2022-11-21T09:44:58.943Z,1.45
2022-11-21T09:47:30.860Z,1.15
2022-11-21T09:50:02.921Z,1.95
2022-11-21T09:52:39.542Z,1.42
2022-11-21T09:55:17.926Z,0.70
2022-11-21T09:57:50.918Z,1.38
2022-11-21T10:00:23.973Z,0.65
2022-11-21T10:02:53.614Z,0.88
2022-11-21T10:05:34.236Z,1.15
2022-11-21T10:08:16.717Z,6.68
2022-11-21T10:10:57.027Z,1.23
2022-11-21T10:13:45.747Z,0.57
2022-11-21T10:16:23.233Z,0.40
2022-11-21T10:19:21.644Z,0.90
2022-11-21T10:22:20.154Z,1.67
2022-11-21T10:24:58.144Z,0.85
2022-11-21T10:27:35.706Z,1.15
2022-11-21T10:30:15.680Z,1.45
2022-11-21T10:32:47.369Z,0.43
2022-11-21T10:35:19.912Z,0.60
2022-11-21T10:37:53.553Z,1.77
2022-11-21T10:40:38.366Z,0.98
2022-11-21T10:43:33.637Z,1.40
2022-11-21T10:46:03.653Z,1.60
2022-11-21T10:48:32.045Z,1.23
2022-11-21T10:51:30.143Z,0.77
2022-11-21T10:54:25.426Z,0.43
2022-11-21T10:56:55.914Z,0.77
2022-11-21T10:59:30.802Z,1.27
2022-11-21T11:02:03.663Z,0.70
2022-11-21T11:04:45.761Z,1.75
2022-11-21T11:07:25.112Z,3.08
2022-11-21T11:09:54.294Z,2.47
2022-11-21T11:12:50.996Z,1.92
2022-11-21T11:15:25.568Z,1.25
2022-11-21T11:18:02.755Z,0.77
2022-11-21T11:20:40.144Z,0.65
2022-11-21T11:23:28.599Z,1.63
2022-11-21T11:25:58.994Z,1.58
2022-11-21T11:28:28.104Z,0.95
2022-11-21T11:30:59.112Z,0.90
2022-11-21T11:33:40.729Z,0.40
2022-11-21T11:36:15.673Z,2.30
2022-11-21T11:38:55.275Z,0.73
2022-11-21T11:42:19.134Z,0.93
2022-11-21T11:45:35.969Z,0.85
2022-11-21T11:48:10.996Z,1.60
2022-11-21T11:50:44.961Z,0.70
2022-11-21T11:53:19.608Z,3.03
2022-11-21T11:55:53.544Z,2.60
2022-11-21T11:58:30.452Z,0.60
2022-11-21T12:01:06.274Z,2.40
2022-11-21T12:03:44.642Z,1.00
2022-11-21T12:06:20.885Z,2.67
2022-11-21T12:08:55.472Z,2.17
2022-11-21T12:12:03.854Z,1.85
2022-11-21T12:15:02.984Z,2.72
2022-11-21T12:17:40.767Z,1.27
2022-11-21T12:20:19.010Z,1.02
2022-11-21T12:22:51.106Z,0.90
2022-11-21T12:25:22.799Z,0.85
2022-11-21T12:27:56.539Z,0.60
2022-11-21T12:30:56.506Z,0.63
2022-11-21T12:33:25.592Z,0.68
2022-11-21T12:36:23.834Z,0.80
2022-11-21T12:39:18.038Z,1.27
2022-11-21T12:42:12.940Z,1.95
2022-11-21T12:45:07.581Z,1.25
2022-11-21T12:48:59.691Z,1.05
2022-11-21T12:52:22.787Z,3.25
2022-11-21T12:55:19.608Z,1.15
2022-11-21T12:58:25.810Z,3.38
2022-11-21T13:01:24.642Z,1.27
2022-11-21T13:04:01.366Z,1.30
2022-11-21T13:06:34.141Z,1.48
2022-11-21T13:09:06.978Z,1.55
2022-11-21T13:11:59.727Z,0.60
2022-11-21T13:14:45.925Z,0.82
2022-11-21T13:17:30.408Z,2.25
2022-11-21T13:20:03.071Z,0.88
2022-11-21T13:22:55.358Z,1.80
2022-11-21T13:25:48.668Z,0.70
2022-11-21T13:28:37.691Z,1.42
2022-11-21T13:31:34.304Z,1.17
2022-11-21T13:34:03.518Z,1.25
2022-11-21T13:36:43.445Z,1.25
2022-11-21T13:39:38.028Z,0.90
2022-11-21T13:42:41.318Z,2.78
2022-11-21T13:45:45.208Z,2.67
2022-11-21T13:48:36.469Z,1.50
2022-11-21T13:51:53.147Z,1.00
2022-11-21T13:55:04.539Z,1.90
2022-11-21T13:58:03.678Z,1.95
2022-11-21T14:00:58.352Z,2.40
2022-11-21T14:04:14.771Z,1.52
2022-11-21T14:06:44.324Z,1.70
2022-11-21T14:09:28.012Z,1.33
2022-11-21T14:12:00.701Z,1.88
2022-11-21T14:14:39.291Z,1.55
2022-11-21T14:17:28.539Z,1.10
2022-11-21T14:19:59.704Z,3.80
2022-11-21T14:22:35.646Z,0.68
2022-11-21T14:25:11.620Z,3.30
2022-11-21T14:27:45.479Z,6.85
2022-11-21T14:30:37.136Z,2.38
2022-11-21T14:33:32.073Z,1.85
2022-11-21T14:36:07.377Z,2.63
2022-11-21T14:38:43.124Z,1.35
2022-11-21T14:41:34.283Z,1.30
2022-11-21T14:44:17.652Z,2.72
2022-11-21T14:46:47.698Z,2.08
2022-11-21T14:49:29.243Z,1.58
2022-11-21T14:52:16.080Z,1.48
2022-11-21T14:55:22.138Z,2.28
2022-11-21T14:57:43.645Z,3.63
2022-11-21T15:00:51.159Z,3.83
2022-11-21T15:03:21.556Z,1.67
2022-11-21T15:06:06.294Z,1.27
2022-11-21T15:11:31.155Z,1.58
2022-11-21T15:14:19.521Z,1.20
2022-11-21T15:16:50.926Z,1.77
2022-11-21T15:19:22.860Z,1.98
2022-11-21T15:21:54.395Z,3.20
2022-11-21T15:24:33.007Z,3.90
2022-11-21T15:27:01.510Z,1.20
2022-11-21T15:29:33.649Z,1.42
2022-11-21T15:32:14.100Z,2.75
2022-11-21T15:34:58.358Z,1.75
2022-11-21T15:37:28.116Z,1.13
2022-11-21T15:39:56.609Z,3.75
2022-11-21T15:42:39.333Z,1.52
2022-11-21T15:45:26.865Z,2.42
2022-11-21T15:47:56.799Z,1.77
2022-11-21T15:50:26.647Z,2.65
2022-11-21T15:52:57.035Z,1.83
2022-11-21T15:55:29.494Z,2.80
2022-11-21T15:57:57.904Z,2.72
2022-11-21T16:00:26.584Z,1.65
2022-11-21T16:02:55.047Z,2.45
2022-11-21T16:05:23.897Z,3.05
2022-11-21T16:07:52.372Z,2.97
2022-11-21T16:10:27.548Z,2.40
2022-11-21T16:12:57.046Z,3.38
2022-11-21T16:15:25.628Z,3.53
2022-11-21T16:17:54.453Z,3.70
2022-11-21T16:20:23.159Z,1.67
2022-11-21T16:22:51.532Z,3.35
2022-11-21T16:25:22.050Z,3.03
2022-11-21T16:27:56.585Z,2.80
2022-11-21T16:30:25.019Z,3.67
2022-11-21T16:32:55.661Z,2.80
2022-11-21T16:35:24.411Z,2.55
2022-11-21T16:37:54.387Z,6.35
2022-11-21T16:40:24.710Z,2.40
2022-11-21T16:42:56.778Z,2.33
2022-11-21T16:45:25.642Z,3.33
2022-11-21T16:47:54.299Z,3.40
2022-11-21T16:50:24.100Z,5.15
2022-11-21T16:52:53.665Z,4.65
2022-11-21T16:55:24.837Z,5.60
2022-11-21T16:57:55.065Z,4.15
2022-11-21T17:00:24.872Z,4.75
2022-11-21T17:02:57.156Z,7.97
2022-11-21T17:05:27.800Z,3.70
2022-11-21T17:07:58.458Z,2.97
2022-11-21T17:10:33.780Z,4.60
2022-11-21T17:13:03.549Z,3.42
2022-11-21T17:15:32.018Z,3.40
2022-11-21T17:18:01.954Z,5.82
2022-11-21T17:20:31.825Z,3.22
2022-11-21T17:23:03.099Z,3.63
2022-11-21T17:25:35.779Z,2.90
2022-11-21T17:28:05.589Z,3.60
2022-11-21T17:30:38.379Z,3.33
2022-11-21T17:33:07.436Z,2.42
2022-11-21T17:35:38.341Z,3.58
2022-11-21T17:38:07.562Z,5.18
2022-11-21T17:40:38.880Z,2.95
2022-11-21T17:43:10.065Z,5.82
2022-11-21T17:45:41.126Z,6.90
2022-11-21T17:48:10.828Z,3.15
2022-11-21T17:50:40.615Z,4.57
2022-11-21T17:53:10.058Z,3.17
2022-11-21T17:55:40.596Z,4.68
2022-11-21T17:58:13.283Z,2.90
2022-11-21T18:00:45.833Z,4.63
2022-11-21T18:03:15.738Z,5.50
2022-11-21T18:05:51.363Z,4.35
2022-11-21T18:08:21.436Z,5.53
2022-11-21T18:10:56.034Z,15.93
2022-11-21T18:13:25.534Z,5.57
2022-11-21T18:15:54.754Z,4.80
2022-11-21T18:18:25.443Z,8.50
2022-11-21T18:20:55.518Z,5.63
2022-11-21T18:23:26.359Z,5.18
2022-11-21T18:25:57.922Z,7.55
2022-11-21T18:28:27.454Z,6.32
2022-11-21T18:31:06.542Z,5.43
2022-11-21T18:33:37.531Z,5.75
2022-11-21T18:36:11.003Z,7.60
2022-11-21T18:38:54.908Z,9.32
2022-11-21T18:41:39.956Z,7.25
2022-11-21T18:44:10.401Z,9.63
2022-11-21T18:46:41.527Z,5.25
2022-11-21T18:49:11.832Z,7.60
2022-11-21T18:51:41.967Z,9.45
2022-11-21T18:54:13.453Z,11.23
2022-11-21T18:56:54.614Z,7.97
2022-11-21T18:59:25.315Z,9.38
2022-11-21T19:01:55.240Z,10.30
2022-11-21T19:04:26.707Z,7.78
2022-11-21T19:07:00.571Z,8.07
2022-11-21T19:09:35.634Z,8.15
2022-11-21T19:12:08.368Z,10.82
2022-11-21T19:14:41.940Z,6.78
2022-11-21T19:17:12.396Z,8.82
2022-11-21T19:19:43.664Z,7.40
2022-11-21T19:22:13.170Z,7.05
2022-11-21T19:24:43.234Z,7.70
2022-11-21T19:27:14.702Z,8.77
2022-11-21T19:29:44.225Z,8.02
2022-11-21T19:32:15.409Z,8.75
2022-11-21T19:34:47.096Z,8.90
2022-11-21T19:37:16.861Z,7.72
2022-11-21T19:39:49.074Z,10.25
2022-11-21T19:42:23.827Z,12.00
2022-11-21T19:44:53.579Z,11.18
2022-11-21T19:47:23.125Z,9.68
2022-11-21T19:49:54.357Z,8.07
2022-11-21T19:52:27.771Z,14.93
2022-11-21T19:54:59.323Z,10.20
2022-11-21T19:57:31.050Z,8.98
2022-11-21T20:00:01.807Z,9.52
2022-11-21T20:02:35.274Z,11.35
2022-11-21T20:05:05.522Z,11.82
2022-11-21T20:07:37.441Z,8.20
2022-11-21T20:10:09.531Z,8.60
2022-11-21T20:12:41.039Z,18.08
2022-11-21T20:15:12.796Z,10.68
2022-11-21T20:17:44.714Z,9.52
2022-11-21T20:20:15.119Z,8.73
2022-11-21T20:22:45.147Z,13.15
2022-11-21T20:25:15.527Z,12.43
2022-11-21T20:27:49.580Z,11.38
2022-11-21T20:30:25.447Z,18.33
2022-11-21T20:33:00.130Z,12.10
2022-11-21T20:35:29.646Z,10.77
2022-11-21T20:37:59.549Z,11.25
2022-11-21T20:40:29.546Z,13.45
2022-11-21T20:43:07.276Z,13.25
2022-11-21T20:48:29.397Z,9.68
2022-11-21T20:52:09.593Z,11.82
2022-11-21T20:53:53.734Z,12.05
2022-11-21T20:56:25.295Z,10.90
2022-11-21T20:58:56.572Z,9.95
2022-11-21T21:01:29.554Z,12.63
2022-11-21T21:03:59.696Z,10.32
2022-11-21T21:06:29.227Z,11.30
2022-11-21T21:08:59.811Z,11.07
2022-11-21T21:11:51.035Z,12.48
2022-11-21T21:14:19.020Z,12.65
2022-11-21T21:16:48.058Z,12.88
2022-11-21T21:19:17.334Z,9.30
2022-11-21T21:21:46.234Z,10.80
2022-11-21T21:24:15.838Z,25.70
2022-11-21T21:26:47.301Z,9.52
2022-11-21T21:29:20.845Z,7.75
2022-11-21T21:31:52.355Z,7.93
2022-11-21T21:34:22.450Z,10.98
2022-11-21T21:36:51.611Z,8.63
2022-11-21T21:39:20.299Z,10.45
2022-11-21T21:41:48.742Z,10.05
2022-11-21T21:44:19.006Z,10.60
2022-11-21T21:46:47.400Z,10.27
2022-11-21T21:49:15.837Z,14.10
2022-11-21T21:51:44.248Z,8.45
2022-11-21T21:54:18.899Z,10.50
2022-11-21T21:56:47.792Z,10.77
2022-11-21T21:59:18.243Z,10.80
2022-11-21T22:01:49.174Z,12.68
2022-11-21T22:04:17.596Z,9.75
2022-11-21T22:06:45.926Z,16.37
2022-11-21T22:09:14.267Z,12.32
2022-11-21T22:11:42.711Z,11.23
2022-11-21T22:14:14.630Z,11.77
2022-11-21T22:16:43.820Z,9.57
2022-11-21T22:19:13.926Z,11.25
2022-11-21T22:21:42.338Z,8.93
2022-11-21T22:24:31.049Z,8.77
2022-11-21T22:26:59.542Z,9.98
2022-11-21T22:29:28.023Z,10.35
2022-11-21T22:31:56.433Z,11.35
2022-11-21T22:34:26.716Z,10.68
2022-11-21T22:36:55.145Z,10.07
2022-11-21T22:39:23.518Z,13.25
2022-11-21T22:41:55.622Z,10.40
2022-11-21T22:44:27.134Z,8.98
2022-11-21T22:46:55.665Z,11.02
2022-11-21T22:49:25.410Z,11.35
2022-11-21T22:51:53.932Z,11.20
2022-11-21T22:54:22.913Z,10.80
2022-11-21T22:56:51.324Z,10.00
2022-11-21T22:59:19.679Z,10.60
2022-11-21T23:01:48.137Z,8.57
2022-11-21T23:04:18.025Z,22.75
2022-11-21T23:06:48.084Z,9.85
2022-11-21T23:09:16.492Z,8.95
2022-11-21T23:11:44.842Z,9.13
2022-11-21T23:14:13.684Z,15.67
2022-11-21T23:16:42.123Z,9.85
2022-11-21T23:19:10.517Z,12.35
2022-11-21T23:21:38.939Z,10.77
2022-11-21T23:24:09.294Z,10.68
2022-11-21T23:26:37.933Z,11.93
2022-11-21T23:29:08.800Z,10.02
2022-11-21T23:31:37.441Z,12.00
2022-11-21T23:34:05.992Z,12.70
2022-11-21T23:36:34.386Z,14.13
2022-11-21T23:39:02.767Z,13.90
2022-11-21T23:41:32.808Z,11.32
2022-11-21T23:44:01.209Z,10.40
2022-11-21T23:46:30.650Z,13.73
2022-11-21T23:48:59.035Z,14.15
2022-11-21T23:51:27.463Z,13.65
2022-11-21T23:53:55.795Z,13.23
2022-11-21T23:56:24.187Z,12.20
2022-11-21T23:58:53.934Z,16.27
